Time;durP1;ratioP1;P1;durP2;ratioP2;P2;SDS_P1;SDS_P2;PMS_P1;PMS_P2;Temp;Humidity;BMP_temperature;BMP_pressure;BME280_temperature;BME280_humidity;BME280_pressure;Samples;Min_cycle;Max_cycle;Signal;HPM_P1;HPM_P2
2021/09/04 00:01:36;;;;;;;13.95;7.85;;;17.20;99.90;;;;;;5051884;28;20486;-47
2021/09/04 00:04:02;;;;;;;15.38;8.50;;;17.20;99.90;;;;;;5051776;28;20032;-49
2021/09/04 00:06:28;;;;;;;12.63;8.98;;;17.10;99.90;;;;;;5052071;28;20406;-45
2021/09/04 00:08:53;;;;;;;16.77;8.93;;;17.10;99.90;;;;;;5051551;28;20033;-46
2021/09/04 00:11:19;;;;;;;9.30;7.85;;;17.30;99.90;;;;;;5051733;28;20391;-48
2021/09/04 00:13:45;;;;;;;12.90;8.80;;;17.30;99.90;;;;;;5051752;28;20112;-45
2021/09/04 00:16:11;;;;;;;14.02;8.90;;;17.30;99.90;;;;;;5051662;28;20112;-46
2021/09/04 00:18:36;;;;;;;12.40;9.32;;;17.20;99.90;;;;;;5051138;28;20025;-45
2021/09/04 00:21:02;;;;;;;12.25;8.15;;;17.20;99.90;;;;;;5051352;28;20590;-46
2021/09/04 00:23:28;;;;;;;13.38;7.90;;;17.20;99.90;;;;;;5051526;28;20024;-45
2021/09/04 00:25:53;;;;;;;15.00;9.20;;;17.20;99.90;;;;;;5051601;28;20364;-49
2021/09/04 00:28:19;;;;;;;11.13;8.57;;;17.10;99.90;;;;;;5051313;28;20104;-46
2021/09/04 00:30:44;;;;;;;9.35;8.35;;;17.10;99.90;;;;;;5051583;28;20044;-46
2021/09/04 00:33:10;;;;;;;10.30;8.13;;;17.00;99.90;;;;;;5051491;28;20107;-47
2021/09/04 00:35:36;;;;;;;12.35;8.30;;;16.90;99.90;;;;;;5051368;28;20068;-45
2021/09/04 00:38:01;;;;;;;12.15;8.60;;;16.80;99.90;;;;;;5051225;28;20044;-46
2021/09/04 00:40:27;;;;;;;11.07;8.27;;;16.70;99.90;;;;;;5051216;28;20036;-48
2021/09/04 00:42:52;;;;;;;11.88;8.10;;;16.60;99.90;;;;;;5051288;28;20032;-47
2021/09/04 00:45:18;;;;;;;15.00;8.60;;;16.60;99.90;;;;;;5051108;28;20104;-46
2021/09/04 00:48:01;;;;;;;9.30;7.72;;;16.50;99.90;;;;;;5050747;28;20410;-48
2021/09/04 00:50:29;;;;;;;10.35;8.57;;;16.50;99.90;;;;;;5051041;28;20272;-45
2021/09/04 00:52:55;;;;;;;11.32;8.27;;;16.50;99.90;;;;;;5051170;28;20112;-47
2021/09/04 00:55:22;;;;;;;10.02;9.02;;;16.50;99.90;;;;;;5051160;28;20044;-46
2021/09/04 00:57:47;;;;;;;15.95;10.50;;;16.40;99.90;;;;;;5050622;28;20035;-46
2021/09/04 01:00:13;;;;;;;10.02;8.82;;;16.50;99.90;;;;;;5050459;28;20077;-46
2021/09/04 01:02:39;;;;;;;11.05;9.13;;;16.40;99.90;;;;;;5050798;28;20024;-47
2021/09/04 01:05:06;;;;;;;11.43;8.70;;;16.40;99.90;;;;;;5050804;28;20033;-47
2021/09/04 01:07:32;;;;;;;13.77;9.63;;;16.30;99.90;;;;;;5050144;28;20013;-47
2021/09/04 01:09:58;;;;;;;11.27;9.40;;;16.30;99.90;;;;;;5050739;28;20060;-45
2021/09/04 01:12:24;;;;;;;13.95;9.70;;;16.30;99.90;;;;;;5050796;28;20104;-46
2021/09/04 01:14:50;;;;;;;20.10;11.20;;;16.40;99.90;;;;;;5050786;28;20111;-49
2021/09/04 01:17:15;;;;;;;14.75;10.35;;;16.40;99.90;;;;;;5050595;28;20112;-47
2021/09/04 01:19:41;;;;;;;12.40;9.70;;;16.50;99.90;;;;;;5050500;28;20029;-50
2021/09/04 01:22:07;;;;;;;16.10;10.27;;;16.40;99.90;;;;;;5050496;28;20116;-47
2021/09/04 01:24:32;;;;;;;12.07;10.13;;;16.40;99.90;;;;;;5050972;28;20071;-47
2021/09/04 01:26:59;;;;;;;12.20;9.73;;;16.40;99.90;;;;;;5050603;28;20056;-46
2021/09/04 01:29:24;;;;;;;13.23;9.90;;;16.20;99.90;;;;;;5050145;28;20036;-49
2021/09/04 01:31:50;;;;;;;16.73;10.05;;;16.10;99.90;;;;;;5049230;28;20116;-45
2021/09/04 01:34:16;;;;;;;11.40;9.82;;;16.00;99.90;;;;;;5050581;28;20021;-49
2021/09/04 01:36:41;;;;;;;12.07;10.15;;;16.10;99.90;;;;;;5050502;28;20025;-48
2021/09/04 01:39:09;;;;;;;15.27;10.35;;;16.20;99.90;;;;;;5050080;28;20036;-48
2021/09/04 01:41:37;;;;;;;14.07;9.68;;;16.20;99.90;;;;;;5050192;28;20017;-46
2021/09/04 01:44:03;;;;;;;12.73;9.95;;;16.10;99.90;;;;;;5050360;28;20486;-49
2021/09/04 01:46:30;;;;;;;13.90;9.10;;;16.10;99.90;;;;;;5054464;28;20021;-47
2021/09/04 01:48:57;;;;;;;12.95;9.10;;;16.00;99.90;;;;;;5054253;28;20434;-45
2021/09/04 01:51:23;;;;;;;14.85;10.27;;;15.90;99.90;;;;;;5054387;28;20060;-47
2021/09/04 01:53:49;;;;;;;14.15;10.27;;;15.90;99.90;;;;;;5054148;28;20032;-51
2021/09/04 01:56:14;;;;;;;12.73;9.63;;;15.90;99.90;;;;;;5054133;28;20025;-49
2021/09/04 01:58:40;;;;;;;11.75;9.55;;;15.90;99.90;;;;;;5053810;28;20036;-46
2021/09/04 02:01:07;;;;;;;15.50;9.70;;;15.90;99.90;;;;;;5054291;28;20037;-45
2021/09/04 02:03:33;;;;;;;18.52;10.63;;;15.90;99.90;;;;;;5054012;28;20040;-47
2021/09/04 02:05:58;;;;;;;15.77;10.90;;;15.90;99.90;;;;;;5054052;28;20172;-47
2021/09/04 02:08:24;;;;;;;12.55;9.27;;;15.80;99.90;;;;;;5053549;28;20108;-47
2021/09/04 02:10:49;;;;;;;15.95;10.52;;;15.90;99.90;;;;;;5054061;28;20104;-46
2021/09/04 02:13:15;;;;;;;11.60;9.60;;;15.80;99.90;;;;;;5053733;28;20033;-49
2021/09/04 02:15:40;;;;;;;16.15;10.45;;;15.80;99.90;;;;;;5053814;28;20124;-47
2021/09/04 02:18:06;;;;;;;15.70;9.77;;;15.80;99.90;;;;;;5053617;28;20465;-48
2021/09/04 02:20:31;;;;;;;17.33;11.00;;;15.80;99.90;;;;;;5053744;28;20545;-48
2021/09/04 02:22:57;;;;;;;14.13;10.20;;;15.80;99.90;;;;;;5053751;28;20032;-49
2021/09/04 02:25:22;;;;;;;12.48;10.75;;;15.80;99.90;;;;;;5053827;28;20029;-47
2021/09/04 02:27:48;;;;;;;11.82;9.55;;;15.70;99.90;;;;;;5053416;28;20028;-49
2021/09/04 02:30:13;;;;;;;11.60;9.38;;;15.70;99.90;;;;;;5053605;28;20025;-47
2021/09/04 02:32:39;;;;;;;19.67;11.05;;;15.60;99.90;;;;;;5053796;28;20116;-47
2021/09/04 02:35:06;;;;;;;12.05;9.63;;;15.60;99.90;;;;;;5053732;28;20067;-47
2021/09/04 02:37:32;;;;;;;14.52;9.88;;;15.60;99.90;;;;;;5053472;28;20021;-47
2021/09/04 02:39:57;;;;;;;11.52;9.95;;;15.50;99.90;;;;;;5053836;28;20029;-47
2021/09/04 02:42:23;;;;;;;13.00;10.15;;;15.60;99.90;;;;;;5053412;28;20640;-47
2021/09/04 02:44:48;;;;;;;13.48;10.07;;;15.60;99.90;;;;;;5053353;28;20025;-48
2021/09/04 02:47:14;;;;;;;15.02;9.90;;;15.70;99.90;;;;;;5053410;28;20114;-48
2021/09/04 02:49:40;;;;;;;17.85;10.85;;;15.60;99.90;;;;;;5053094;28;20159;-48
2021/09/04 02:52:05;;;;;;;10.82;9.27;;;15.60;99.90;;;;;;5053274;28;20025;-47
2021/09/04 02:54:31;;;;;;;13.40;10.10;;;15.60;99.90;;;;;;5053705;28;20056;-45
2021/09/04 02:56:57;;;;;;;12.23;10.13;;;15.50;99.90;;;;;;5052936;28;20029;-47
2021/09/04 02:59:22;;;;;;;13.48;10.50;;;15.60;99.90;;;;;;5052979;28;20518;-45
2021/09/04 03:01:48;;;;;;;12.88;10.15;;;15.50;99.90;;;;;;5052997;28;20033;-47
2021/09/04 03:04:13;;;;;;;13.05;10.95;;;15.40;99.90;;;;;;5053058;28;20021;-47
2021/09/04 03:06:39;;;;;;;16.85;12.18;;;15.40;99.90;;;;;;5052723;28;20386;-46
2021/09/04 03:09:04;;;;;;;13.38;10.32;;;15.40;99.90;;;;;;5052591;28;20021;-48
2021/09/04 03:11:30;;;;;;;15.15;11.02;;;15.40;99.90;;;;;;5052809;28;20098;-46
2021/09/04 03:13:55;;;;;;;14.57;10.57;;;15.30;99.90;;;;;;5052844;28;20033;-48
2021/09/04 03:16:21;;;;;;;14.82;10.80;;;15.30;99.90;;;;;;5052748;28;20108;-51
2021/09/04 03:18:46;;;;;;;16.88;11.23;;;15.20;99.90;;;;;;5052432;28;20029;-46
2021/09/04 03:21:12;;;;;;;17.42;10.43;;;15.20;99.90;;;;;;5052534;28;20079;-48
2021/09/04 03:23:37;;;;;;;14.98;11.80;;;15.20;99.90;;;;;;5052714;28;20032;-47
2021/09/04 03:26:04;;;;;;;17.25;11.40;;;15.20;99.90;;;;;;5052607;28;20395;-46
2021/09/04 03:28:29;;;;;;;12.15;10.18;;;15.10;99.90;;;;;;5052312;28;20032;-47
2021/09/04 03:30:55;;;;;;;12.40;10.50;;;15.10;99.90;;;;;;5052737;28;20046;-46
2021/09/04 03:33:21;;;;;;;13.15;10.38;;;15.10;99.90;;;;;;5052544;28;20109;-48
2021/09/04 03:35:47;;;;;;;15.75;10.70;;;15.00;99.90;;;;;;5052239;28;20037;-49
2021/09/04 03:38:12;;;;;;;11.45;9.95;;;15.00;99.90;;;;;;5052017;28;20041;-46
2021/09/04 03:40:38;;;;;;;17.70;12.50;;;15.00;99.90;;;;;;5052469;28;20541;-49
2021/09/04 03:43:04;;;;;;;17.05;11.48;;;14.90;99.90;;;;;;5052377;28;20021;-46
2021/09/04 03:45:29;;;;;;;14.75;11.98;;;14.90;99.90;;;;;;5052302;28;20167;-45
2021/09/04 03:47:55;;;;;;;16.40;12.63;;;14.90;99.90;;;;;;5052323;28;20052;-48
2021/09/04 03:50:20;;;;;;;13.50;10.95;;;14.90;99.90;;;;;;5052478;28;20540;-45
2021/09/04 03:52:46;;;;;;;20.88;12.77;;;14.80;99.90;;;;;;5052208;28;20037;-45
2021/09/04 03:55:11;;;;;;;16.73;11.05;;;14.80;99.90;;;;;;5052018;28;20029;-45
2021/09/04 03:57:37;;;;;;;15.82;11.32;;;14.80;99.90;;;;;;5051628;28;20035;-46
2021/09/04 04:00:04;;;;;;;19.83;11.95;;;14.70;99.90;;;;;;5051722;28;20119;-48
2021/09/04 04:02:29;;;;;;;17.30;11.85;;;14.70;99.90;;;;;;5051919;28;20052;-49
2021/09/04 04:04:55;;;;;;;15.45;12.30;;;14.70;99.90;;;;;;5051873;28;20064;-46
2021/09/04 04:07:20;;;;;;;19.13;11.90;;;14.70;99.90;;;;;;5051069;28;20025;-46
2021/09/04 04:09:46;;;;;;;14.93;11.10;;;14.70;99.90;;;;;;5050356;28;20082;-45
2021/09/04 04:12:12;;;;;;;12.35;10.95;;;14.70;99.90;;;;;;5052080;28;20016;-50
2021/09/04 04:14:37;;;;;;;18.98;11.60;;;14.70;99.90;;;;;;5051974;28;20441;-46
2021/09/04 04:17:03;;;;;;;24.98;11.30;;;14.70;99.90;;;;;;5051641;28;20564;-43
2021/09/04 04:19:29;;;;;;;16.48;11.40;;;14.70;99.90;;;;;;5051400;28;20470;-48
2021/09/04 04:21:54;;;;;;;20.25;12.18;;;14.80;99.90;;;;;;5051556;28;20379;-46
2021/09/04 04:24:20;;;;;;;15.90;11.85;;;14.80;99.90;;;;;;5051567;28;20032;-49
2021/09/04 04:26:45;;;;;;;15.95;10.60;;;14.80;99.90;;;;;;5051594;28;20056;-48
2021/09/04 04:29:11;;;;;;;23.52;11.10;;;14.80;99.90;;;;;;5051174;28;20047;-45
2021/09/04 04:31:38;;;;;;;15.57;10.85;;;14.80;99.90;;;;;;5051639;28;20029;-48
2021/09/04 04:34:04;;;;;;;15.93;10.70;;;14.80;99.90;;;;;;5051608;28;20423;-48
2021/09/04 04:36:30;;;;;;;15.70;10.50;;;14.70;99.90;;;;;;5051581;28;20044;-51
2021/09/04 04:38:55;;;;;;;12.88;10.50;;;14.70;99.90;;;;;;5051127;28;20112;-47
2021/09/04 04:41:21;;;;;;;17.20;11.82;;;14.70;99.90;;;;;;5051388;28;20130;-47
2021/09/04 04:43:46;;;;;;;13.93;10.82;;;14.70;99.90;;;;;;5051229;28;20100;-47
2021/09/04 04:46:11;;;;;;;17.73;11.38;;;14.70;99.90;;;;;;5051167;28;20029;-49
2021/09/04 04:48:38;;;;;;;17.75;10.63;;;14.70;99.90;;;;;;5050848;28;20025;-45
2021/09/04 04:51:04;;;;;;;13.70;11.43;;;14.70;99.90;;;;;;5050965;28;20025;-48
2021/09/04 04:53:29;;;;;;;13.10;11.00;;;14.70;99.90;;;;;;5051045;28;20029;-46
2021/09/04 04:55:55;;;;;;;15.40;12.35;;;14.70;99.90;;;;;;5050971;28;20032;-47
2021/09/04 04:58:20;;;;;;;17.42;12.38;;;14.60;99.90;;;;;;5050701;28;20049;-46
2021/09/04 05:00:46;;;;;;;16.50;10.75;;;14.70;99.90;;;;;;5050793;28;20021;-47
2021/09/04 05:03:11;;;;;;;16.08;11.60;;;14.70;99.90;;;;;;5051122;28;20021;-49
2021/09/04 05:05:37;;;;;;;15.18;12.25;;;14.70;99.90;;;;;;5050581;28;20025;-49
2021/09/04 05:08:03;;;;;;;16.40;12.25;;;14.70;99.90;;;;;;5050324;28;20033;-48
2021/09/04 05:10:29;;;;;;;20.80;11.63;;;14.60;99.90;;;;;;5051102;28;20034;-48
2021/09/04 05:12:54;;;;;;;14.02;12.00;;;14.60;99.90;;;;;;5050860;28;20029;-45
2021/09/04 05:15:20;;;;;;;17.08;12.23;;;14.60;99.90;;;;;;5050765;28;20040;-47
2021/09/04 05:17:45;;;;;;;17.13;12.45;;;14.60;99.90;;;;;;5050518;28;20025;-46
2021/09/04 05:20:11;;;;;;;13.63;11.40;;;14.70;99.90;;;;;;5049576;28;20148;-46
2021/09/04 05:22:36;;;;;;;18.15;11.90;;;14.70;99.90;;;;;;5050467;28;20489;-47
2021/09/04 05:25:02;;;;;;;15.93;10.40;;;14.70;99.90;;;;;;5050522;28;20029;-47
2021/09/04 05:27:28;;;;;;;14.55;10.77;;;14.70;99.90;;;;;;5050123;28;20032;-46
2021/09/04 05:29:53;;;;;;;13.10;10.73;;;14.70;99.90;;;;;;5050345;28;20112;-46
2021/09/04 05:32:23;;;;;;;15.18;10.98;;;14.70;99.90;;;;;;5050479;28;20021;-47
2021/09/04 05:34:52;;;;;;;17.80;11.40;;;14.80;99.90;;;;;;5050319;28;20021;-44
2021/09/04 05:37:18;;;;;;;11.65;10.05;;;14.90;99.90;;;;;;5050124;28;20037;-45
2021/09/04 05:39:44;;;;;;;15.57;10.30;;;15.00;99.90;;;;;;5050211;28;20025;-45
2021/09/04 05:42:10;;;;;;;13.52;10.07;;;15.00;99.90;;;;;;5049110;28;20049;-46
2021/09/04 05:44:36;;;;;;;13.18;10.25;;;15.00;99.90;;;;;;5050325;28;20438;-46
2021/09/04 05:47:01;;;;;;;12.77;10.70;;;15.00;99.90;;;;;;5050743;28;20066;-48
2021/09/04 05:49:27;;;;;;;13.35;9.63;;;15.10;99.90;;;;;;5049771;28;20029;-46
2021/09/04 05:51:53;;;;;;;12.90;9.48;;;15.10;99.90;;;;;;5050160;28;20033;-49
2021/09/04 05:54:18;;;;;;;17.08;10.45;;;15.10;99.90;;;;;;5050369;28;20029;-46
2021/09/04 05:56:44;;;;;;;12.77;10.20;;;15.20;99.90;;;;;;5050181;28;20056;-45
2021/09/04 05:59:09;;;;;;;12.40;10.65;;;15.30;99.90;;;;;;5049702;28;20076;-45
2021/09/04 06:01:35;;;;;;;12.93;10.18;;;15.40;99.90;;;;;;5050132;28;20116;-50
2021/09/04 06:04:00;;;;;;;15.27;10.93;;;15.50;99.90;;;;;;5050267;28;20013;-47
2021/09/04 06:06:26;;;;;;;12.00;9.75;;;15.50;99.90;;;;;;5049582;28;20112;-49
2021/09/04 06:08:52;;;;;;;13.57;11.07;;;15.50;99.90;;;;;;5049806;28;20033;-47
2021/09/04 06:11:17;;;;;;;14.52;10.73;;;15.70;99.90;;;;;;5050447;28;20051;-45
2021/09/04 06:13:43;;;;;;;12.77;10.05;;;15.70;99.90;;;;;;5049990;28;20036;-47
2021/09/04 06:16:08;;;;;;;12.15;10.30;;;15.70;99.90;;;;;;5049966;28;20031;-46
2021/09/04 06:18:34;;;;;;;17.08;10.73;;;16.00;99.90;;;;;;5049561;28;20083;-47
2021/09/04 06:20:59;;;;;;;16.95;10.90;;;16.20;99.90;;;;;;5049805;28;20021;-46
2021/09/04 06:23:25;;;;;;;14.82;11.10;;;16.30;99.90;;;;;;5050042;28;20485;-47
2021/09/04 06:25:50;;;;;;;12.68;9.85;;;16.30;99.90;;;;;;5049955;28;20037;-48
2021/09/04 06:28:16;;;;;;;20.02;11.40;;;16.20;99.90;;;;;;5049634;28;20078;-45
2021/09/04 06:30:41;;;;;;;11.85;10.50;;;16.20;99.90;;;;;;5051063;28;20505;-46
2021/09/04 06:33:07;;;;;;;14.38;10.50;;;16.30;99.90;;;;;;5053641;28;20033;-45
2021/09/04 06:35:32;;;;;;;12.68;10.90;;;16.50;99.90;;;;;;5053589;28;20127;-45
2021/09/04 06:37:58;;;;;;;15.40;10.02;;;16.60;99.90;;;;;;5053650;28;20670;-45
2021/09/04 06:40:23;;;;;;;14.75;10.15;;;16.70;99.90;;;;;;5053609;28;20112;-48
2021/09/04 06:42:49;;;;;;;14.18;10.68;;;16.80;99.90;;;;;;5053306;28;20044;-47
2021/09/04 06:45:14;;;;;;;11.68;9.50;;;16.80;99.90;;;;;;5053411;28;20018;-46
2021/09/04 06:47:40;;;;;;;19.17;11.20;;;16.80;99.90;;;;;;5053199;28;20021;-45
2021/09/04 06:50:06;;;;;;;16.13;10.50;;;16.70;99.90;;;;;;5053090;28;20364;-46
2021/09/04 06:52:31;;;;;;;14.00;10.25;;;16.80;99.90;;;;;;5053256;28;20035;-45
2021/09/04 06:54:57;;;;;;;13.23;9.73;;;17.00;99.90;;;;;;5053160;28;20057;-45
2021/09/04 06:57:22;;;;;;;12.82;10.25;;;17.10;99.90;;;;;;5053220;28;20029;-46
2021/09/04 06:59:48;;;;;;;12.45;9.82;;;17.10;99.90;;;;;;5052868;28;20091;-48
2021/09/04 07:02:13;;;;;;;10.40;9.20;;;17.40;99.90;;;;;;5053121;28;20021;-50
2021/09/04 07:04:39;;;;;;;14.85;10.35;;;17.50;99.90;;;;;;5052762;28;20112;-45
2021/09/04 07:07:05;;;;;;;13.25;9.25;;;17.70;99.90;;;;;;5053351;28;20104;-45
2021/09/04 07:09:32;;;;;;;17.45;9.27;;;17.70;99.90;;;;;;5052630;28;20025;-46
2021/09/04 07:11:57;;;;;;;12.35;8.70;;;17.70;99.90;;;;;;5053238;28;20041;-45
2021/09/04 07:14:23;;;;;;;14.07;9.20;;;17.60;99.90;;;;;;5052969;28;20656;-46
2021/09/04 07:16:49;;;;;;;12.98;8.82;;;17.50;99.90;;;;;;5052762;28;20029;-45
2021/09/04 07:19:14;;;;;;;11.20;8.95;;;17.50;99.90;;;;;;5052571;28;20103;-47
2021/09/04 07:21:40;;;;;;;13.95;8.55;;;17.40;99.90;;;;;;5052734;28;20036;-46
2021/09/04 07:24:05;;;;;;;9.95;8.35;;;17.40;99.90;;;;;;5052706;28;20052;-45
2021/09/04 07:26:32;;;;;;;12.27;8.93;;;17.50;99.90;;;;;;5052805;28;20017;-47
2021/09/04 07:28:57;;;;;;;14.23;8.27;;;17.70;99.90;;;;;;5052275;28;20467;-46
2021/09/04 07:31:23;;;;;;;11.20;8.25;;;17.80;99.90;;;;;;5052712;28;20032;-47
2021/09/04 07:33:48;;;;;;;10.43;8.13;;;17.90;99.90;;;;;;5052424;28;20025;-48
2021/09/04 07:36:14;;;;;;;11.30;8.77;;;18.10;99.90;;;;;;5052617;28;20110;-48
2021/09/04 07:38:40;;;;;;;13.23;8.40;;;18.20;99.90;;;;;;5052246;28;20118;-46
2021/09/04 07:41:05;;;;;;;10.65;8.23;;;18.20;99.90;;;;;;5052209;28;20071;-47
2021/09/04 07:43:31;;;;;;;10.27;7.72;;;18.30;99.90;;;;;;5051303;28;20036;-45
2021/09/04 07:45:56;;;;;;;13.27;8.18;;;18.50;99.90;;;;;;5052418;28;20447;-46
2021/09/04 07:48:21;;;;;;;10.55;6.93;;;18.80;99.90;;;;;;5052456;28;20029;-46
2021/09/04 07:50:47;;;;;;;10.95;8.13;;;19.30;99.90;;;;;;5052431;28;20036;-47
2021/09/04 07:53:12;;;;;;;7.93;6.60;;;20.00;99.90;;;;;;5052663;28;20120;-49
2021/09/04 07:55:38;;;;;;;8.23;6.07;;;20.70;99.90;;;;;;5052572;28;20445;-46
2021/09/04 07:58:04;;;;;;;9.32;6.85;;;21.30;99.90;;;;;;5051928;28;20071;-47
2021/09/04 08:00:29;;;;;;;8.48;6.32;;;21.90;99.40;;;;;;5052361;28;20420;-47
2021/09/04 08:02:55;;;;;;;8.10;6.57;;;22.70;97.40;;;;;;5052155;28;20104;-47
2021/09/04 08:05:20;;;;;;;8.15;6.72;;;23.10;96.80;;;;;;5050335;28;20025;-48
2021/09/04 08:07:46;;;;;;;10.85;7.07;;;23.40;96.10;;;;;;5051686;28;20025;-50
2021/09/04 08:10:12;;;;;;;9.38;6.38;;;23.60;95.50;;;;;;5051808;28;20033;-48
2021/09/04 08:12:37;;;;;;;7.72;5.97;;;23.80;95.40;;;;;;5051861;28;20399;-46
2021/09/04 08:15:03;;;;;;;6.32;5.65;;;24.40;94.90;;;;;;5051563;28;20033;-51
2021/09/04 08:17:29;;;;;;;7.57;5.78;;;25.20;94.00;;;;;;5051502;28;20102;-49
2021/09/04 08:19:54;;;;;;;6.50;5.72;;;26.20;92.50;;;;;;5051412;28;20470;-49
2021/09/04 08:22:20;;;;;;;18.85;6.20;;;27.10;91.00;;;;;;5051635;28;20021;-47
2021/09/04 08:24:45;;;;;;;6.32;5.60;;;27.80;90.00;;;;;;5051495;28;20021;-47
2021/09/04 08:27:11;;;;;;;9.05;6.65;;;28.80;86.00;;;;;;5051346;28;20036;-49
2021/09/04 08:29:36;;;;;;;7.47;5.25;;;28.70;83.00;;;;;;5051506;28;20025;-49
2021/09/04 08:32:03;;;;;;;8.23;5.82;;;28.40;84.40;;;;;;5051489;28;20060;-49
2021/09/04 08:34:28;;;;;;;6.40;5.25;;;28.20;84.40;;;;;;5051328;28;20028;-46
2021/09/04 08:36:54;;;;;;;5.70;5.20;;;28.30;84.30;;;;;;5051456;28;20029;-50
2021/09/04 08:39:19;;;;;;;5.38;4.88;;;28.60;84.10;;;;;;5051011;28;20048;-47
2021/09/04 08:41:45;;;;;;;5.93;5.10;;;28.90;83.90;;;;;;5051079;28;20031;-48
2021/09/04 08:44:10;;;;;;;8.50;6.30;;;29.50;81.20;;;;;;5050596;28;20040;-47
2021/09/04 08:46:37;;;;;;;5.55;5.07;;;29.90;80.60;;;;;;5049756;28;20024;-46
2021/09/04 08:49:05;;;;;;;5.65;5.15;;;30.20;78.30;;;;;;5050633;28;20029;-46
2021/09/04 08:51:32;;;;;;;4.95;4.45;;;30.00;78.00;;;;;;5051025;28;20025;-50
2021/09/04 08:53:57;;;;;;;5.18;4.68;;;29.80;78.60;;;;;;5049525;28;20063;-49
2021/09/04 08:56:23;;;;;;;7.55;5.28;;;29.70;78.70;;;;;;5050934;28;20056;-46
2021/09/04 08:58:49;;;;;;;6.50;4.93;;;29.60;78.70;;;;;;5050503;28;20037;-50
2021/09/04 09:01:21;;;;;;;6.60;4.78;;;29.60;78.40;;;;;;5050422;28;20108;-49
2021/09/04 09:03:49;;;;;;;17.83;5.45;;;30.00;76.90;;;;;;5050832;28;20017;-50
2021/09/04 09:06:24;;;;;;;9.40;5.07;;;29.50;76.70;;;;;;5050867;28;20029;-51
2021/09/04 09:08:50;;;;;;;6.70;4.82;;;29.20;76.30;;;;;;5050359;28;20021;-50
2021/09/04 09:11:15;;;;;;;6.88;5.03;;;29.00;77.70;;;;;;5050654;28;20032;-46
2021/09/04 09:13:55;;;;;;;7.65;4.82;;;29.60;78.90;;;;;;5050553;28;20037;-47
2021/09/04 09:16:23;;;;;;;11.70;5.20;;;29.80;76.30;;;;;;5050750;28;20028;-51
2021/09/04 09:19:00;;;;;;;5.40;4.90;;;29.80;76.50;;;;;;5050869;28;20075;-49
2021/09/04 09:21:31;;;;;;;6.53;5.22;;;29.50;78.40;;;;;;5050563;28;20047;-49
2021/09/04 09:24:27;;;;;;;6.13;5.30;;;29.30;77.70;;;;;;5050482;28;20052;-48
2021/09/04 09:26:57;;;;;;;10.82;4.75;;;28.70;78.80;;;;;;5037941;28;20033;-46
2021/09/04 09:29:25;;;;;;;6.55;5.13;;;28.30;78.10;;;;;;5050305;28;20025;-46
2021/09/04 09:32:09;;;;;;;5.45;4.95;;;27.90;79.10;;;;;;5050408;28;20044;-47
2021/09/04 09:34:45;;;;;;;7.20;5.40;;;27.70;80.30;;;;;;5050587;28;20040;-45
2021/09/04 09:37:12;;;;;;;13.38;5.68;;;27.50;81.60;;;;;;5050180;28;20112;-45
2021/09/04 09:39:41;;;;;;;10.57;5.68;;;26.60;81.00;;;;;;5050073;28;20036;-48
2021/09/04 09:42:09;;;;;;;8.82;4.75;;;26.70;83.70;;;;;;5050509;28;20402;-46
2021/09/04 09:44:36;;;;;;;9.10;5.10;;;27.10;83.20;;;;;;5050365;28;20032;-47
2021/09/04 09:47:07;;;;;;;5.20;4.70;;;27.30;81.90;;;;;;5049028;28;20429;-48
2021/09/04 09:49:40;;;;;;;7.97;5.90;;;26.90;81.00;;;;;;5049932;28;20047;-47
2021/09/04 09:52:09;;;;;;;5.75;5.13;;;26.70;82.90;;;;;;5050171;28;20108;-46
2021/09/04 09:54:36;;;;;;;5.78;5.05;;;26.70;84.20;;;;;;5050071;28;20074;-46
2021/09/04 09:57:11;;;;;;;5.57;5.10;;;26.80;83.30;;;;;;5049924;28;20033;-49
2021/09/04 09:59:38;;;;;;;5.63;5.10;;;27.00;83.30;;;;;;5049647;28;20040;-48
2021/09/04 10:02:09;;;;;;;8.85;5.68;;;27.00;82.60;;;;;;5049982;28;20029;-49
2021/09/04 10:04:38;;;;;;;6.72;5.30;;;26.90;82.90;;;;;;5050047;28;20052;-47
2021/09/04 10:07:08;;;;;;;5.95;5.28;;;26.80;84.50;;;;;;5052970;28;20021;-47
2021/09/04 10:09:35;;;;;;;12.10;6.28;;;26.90;82.80;;;;;;5054002;28;20496;-47
2021/09/04 10:12:02;;;;;;;16.48;13.10;;;26.60;83.70;;;;;;5054114;28;20025;-48
2021/09/04 10:14:28;;;;;;;17.08;11.88;;;26.40;84.10;;;;;;5054473;28;20021;-52
2021/09/04 10:16:59;;;;;;;7.65;5.13;;;26.40;85.20;;;;;;5054096;28;20478;-45
2021/09/04 10:19:30;;;;;;;7.18;5.55;;;26.40;84.00;;;;;;5054004;28;20067;-49
2021/09/04 10:22:01;;;;;;;7.03;5.13;;;26.40;83.40;;;;;;5054102;28;20490;-46
2021/09/04 10:24:46;;;;;;;9.80;5.13;;;26.20;83.50;;;;;;5053989;28;20029;-48
2021/09/04 10:27:13;;;;;;;5.30;4.73;;;26.40;82.70;;;;;;5053994;28;20062;-48
2021/09/04 10:29:41;;;;;;;7.43;4.75;;;26.30;83.40;;;;;;5053622;28;20013;-49
2021/09/04 10:32:07;;;;;;;7.28;5.20;;;26.50;84.70;;;;;;5053693;28;20090;-47
2021/09/04 10:34:39;;;;;;;7.10;4.90;;;26.50;83.10;;;;;;5053624;28;20025;-48
2021/09/04 10:37:13;;;;;;;7.43;4.63;;;26.50;81.80;;;;;;5053466;28;20029;-51
2021/09/04 10:39:55;;;;;;;6.47;4.60;;;26.40;80.50;;;;;;5053448;28;20055;-46
2021/09/04 10:42:23;;;;;;;7.50;5.63;;;26.30;80.90;;;;;;5053454;28;20021;-49
2021/09/04 10:44:52;;;;;;;6.60;5.68;;;26.10;82.20;;;;;;5053360;28;20025;-48
2021/09/04 10:47:18;;;;;;;5.45;4.68;;;25.90;83.30;;;;;;5052849;28;20025;-49
2021/09/04 10:49:46;;;;;;;8.07;5.60;;;25.70;84.60;;;;;;5052620;28;20013;-47
2021/09/04 10:52:12;;;;;;;6.55;4.32;;;25.60;83.90;;;;;;5052907;28;20021;-47
2021/09/04 10:54:58;;;;;;;7.07;5.22;;;25.50;83.90;;;;;;5053213;28;20510;-49
2021/09/04 10:57:24;;;;;;;7.05;5.25;;;25.50;83.30;;;;;;5052860;28;20493;-46
2021/09/04 10:59:58;;;;;;;7.28;5.30;;;25.60;84.10;;;;;;5052982;28;20505;-47
2021/09/04 11:02:41;;;;;;;8.57;4.78;;;25.60;81.30;;;;;;5053243;28;20510;-46
2021/09/04 11:05:27;;;;;;;10.02;4.85;;;25.50;81.60;;;;;;5053169;28;20520;-48
2021/09/04 11:08:04;;;;;;;6.70;4.75;;;25.50;81.80;;;;;;5052565;28;20049;-46
2021/09/04 11:10:31;;;;;;;7.38;4.80;;;25.40;83.50;;;;;;5052957;28;20120;-50
2021/09/04 11:13:11;;;;;;;6.80;4.72;;;25.30;84.40;;;;;;5052923;28;20033;-46
2021/09/04 11:15:36;;;;;;;7.50;4.80;;;25.30;82.80;;;;;;5052852;28;20068;-46
2021/09/04 11:18:02;;;;;;;6.70;4.82;;;25.20;80.20;;;;;;5052015;28;20057;-47
2021/09/04 11:20:28;;;;;;;6.85;4.78;;;25.00;79.30;;;;;;5052460;28;20032;-47
2021/09/04 11:22:54;;;;;;;6.80;4.65;;;24.90;81.30;;;;;;5052803;28;20017;-52
2021/09/04 11:25:21;;;;;;;5.78;4.88;;;24.80;93.90;;;;;;5052626;28;20025;-49
2021/09/04 11:27:46;;;;;;;6.80;4.63;;;24.70;83.50;;;;;;5052229;28;20104;-46
2021/09/04 11:30:17;;;;;;;5.75;4.30;;;24.70;84.00;;;;;;5052229;28;20443;-49
2021/09/04 11:32:43;;;;;;;9.02;4.30;;;24.80;84.50;;;;;;5052442;28;20056;-47
2021/09/04 11:35:10;;;;;;;5.10;4.10;;;24.90;81.80;;;;;;5052598;28;20033;-45
2021/09/04 11:37:41;;;;;;;5.65;4.60;;;24.90;82.50;;;;;;5052324;28;20549;-48
2021/09/04 11:40:12;;;;;;;5.03;4.50;;;25.00;81.30;;;;;;5052549;28;20191;-47
2021/09/04 11:42:40;;;;;;;8.40;4.55;;;25.00;80.70;;;;;;5052593;28;20461;-45
2021/09/04 11:45:08;;;;;;;5.65;5.03;;;25.00;80.80;;;;;;5052195;28;20133;-46
2021/09/04 11:47:36;;;;;;;5.03;4.20;;;25.00;80.20;;;;;;5051512;28;20021;-47
2021/09/04 11:50:04;;;;;;;6.07;4.35;;;25.00;80.90;;;;;;5052777;28;20491;-47
2021/09/04 11:52:40;;;;;;;8.02;4.55;;;25.00;99.50;;;;;;5051627;28;20029;-47
2021/09/04 11:55:10;;;;;;;4.70;4.28;;;25.00;94.90;;;;;;5050783;28;20020;-46
2021/09/04 11:57:38;;;;;;;9.73;3.95;;;25.00;92.70;;;;;;5050696;28;20027;-48
2021/09/04 12:00:11;;;;;;;5.35;4.20;;;25.00;99.90;;;;;;5051651;28;20400;-48
2021/09/04 12:02:42;;;;;;;8.15;4.18;;;;;;;;;;5051494;28;20025;-47
2021/09/04 12:05:09;;;;;;;5.20;4.70;;;25.00;99.90;;;;;;5051854;28;20108;-48
2021/09/04 12:07:36;;;;;;;4.53;4.03;;;25.00;99.70;;;;;;5051076;28;20504;-45
2021/09/04 12:10:04;;;;;;;5.00;3.90;;;25.10;99.30;;;;;;5051648;28;20021;-48
2021/09/04 12:12:30;;;;;;;5.35;4.43;;;25.10;99.40;;;;;;5051669;28;20032;-48
2021/09/04 12:14:56;;;;;;;5.70;4.30;;;25.10;99.30;;;;;;5051491;28;20386;-50
2021/09/04 12:17:25;;;;;;;6.55;4.22;;;25.10;96.10;;;;;;5051298;28;20021;-47
2021/09/04 12:19:52;;;;;;;4.88;4.45;;;25.20;94.10;;;;;;5051413;28;20025;-49
2021/09/04 12:22:29;;;;;;;5.32;4.45;;;25.20;79.00;;;;;;5051279;28;20070;-45
2021/09/04 12:24:54;;;;;;;7.47;4.68;;;25.10;78.80;;;;;;5051438;28;20409;-46
2021/09/04 12:27:40;;;;;;;5.88;4.13;;;25.10;78.90;;;;;;5050837;28;20017;-45
2021/09/04 12:30:08;;;;;;;4.50;3.95;;;25.10;78.50;;;;;;5049973;28;20031;-50
2021/09/04 12:32:35;;;;;;;4.80;4.35;;;25.10;80.20;;;;;;5049348;28;20041;-46
2021/09/04 12:35:02;;;;;;;6.38;4.20;;;25.20;79.80;;;;;;5049664;28;20043;-48